sensor_id;sensor_type;location;lat;lon;timestamp;P1;durP1;ratioP1;P2;durP2;ratioP2
76848;SDS011;65814;51.134;16.980;2023-12-14T00:01:37;41.00;;;21.50;;
76848;SDS011;65814;51.134;16.980;2023-12-14T00:04:08;43.40;;;25.00;;
76848;SDS011;65814;51.134;16.980;2023-12-14T00:06:36;42.60;;;22.50;;
76848;SDS011;65814;51.134;16.980;2023-12-14T00:09:04;39.10;;;21.80;;
76848;SDS011;65814;51.134;16.980;2023-12-14T00:11:32;38.70;;;23.00;;
76848;SDS011;65814;51.134;16.980;2023-12-14T00:14:02;42.50;;;22.90;;
76848;SDS011;65814;51.134;16.980;2023-12-14T00:16:31;37.30;;;22.80;;
76848;SDS011;65814;51.134;16.980;2023-12-14T00:18:59;45.30;;;23.00;;
76848;SDS011;65814;51.134;16.980;2023-12-14T00:21:27;48.00;;;24.20;;
76848;SDS011;65814;51.134;16.980;2023-12-14T00:23:55;41.90;;;24.30;;
76848;SDS011;65814;51.134;16.980;2023-12-14T00:26:23;39.90;;;23.40;;
76848;SDS011;65814;51.134;16.980;2023-12-14T00:28:51;37.90;;;22.20;;
76848;SDS011;65814;51.134;16.980;2023-12-14T00:31:28;35.50;;;21.40;;
76848;SDS011;65814;51.134;16.980;2023-12-14T00:33:57;40.10;;;22.70;;
76848;SDS011;65814;51.134;16.980;2023-12-14T00:36:25;32.90;;;20.00;;
76848;SDS011;65814;51.134;16.980;2023-12-14T00:38:55;35.40;;;21.30;;
76848;SDS011;65814;51.134;16.980;2023-12-14T00:41:24;39.30;;;20.60;;
76848;SDS011;65814;51.134;16.980;2023-12-14T00:43:52;37.00;;;21.30;;
76848;SDS011;65814;51.134;16.980;2023-12-14T00:46:20;40.60;;;20.70;;
76848;SDS011;65814;51.134;16.980;2023-12-14T00:48:48;40.20;;;21.20;;
76848;SDS011;65814;51.134;16.980;2023-12-14T00:51:16;36.80;;;23.00;;
76848;SDS011;65814;51.134;16.980;2023-12-14T00:53:44;35.30;;;21.60;;
76848;SDS011;65814;51.134;16.980;2023-12-14T00:56:13;37.90;;;21.30;;
76848;SDS011;65814;51.134;16.980;2023-12-14T00:58:41;39.10;;;20.60;;
76848;SDS011;65814;51.134;16.980;2023-12-14T01:01:09;40.80;;;21.20;;
76848;SDS011;65814;51.134;16.980;2023-12-14T01:03:37;36.80;;;20.60;;
76848;SDS011;65814;51.134;16.980;2023-12-14T01:06:05;35.60;;;20.50;;
76848;SDS011;65814;51.134;16.980;2023-12-14T01:08:35;37.00;;;20.60;;
76848;SDS011;65814;51.134;16.980;2023-12-14T01:11:03;35.40;;;19.70;;
76848;SDS011;65814;51.134;16.980;2023-12-14T01:13:31;36.50;;;21.30;;
76848;SDS011;65814;51.134;16.980;2023-12-14T01:15:59;36.50;;;20.20;;
76848;SDS011;65814;51.134;16.980;2023-12-14T01:18:27;33.60;;;20.70;;
76848;SDS011;65814;51.134;16.980;2023-12-14T01:20:55;35.20;;;19.00;;
76848;SDS011;65814;51.134;16.980;2023-12-14T01:23:23;35.00;;;19.60;;
76848;SDS011;65814;51.134;16.980;2023-12-14T01:25:51;31.50;;;19.10;;
76848;SDS011;65814;51.134;16.980;2023-12-14T01:28:19;39.40;;;23.00;;
76848;SDS011;65814;51.134;16.980;2023-12-14T01:30:47;32.60;;;20.40;;
76848;SDS011;65814;51.134;16.980;2023-12-14T01:33:16;35.10;;;20.60;;
76848;SDS011;65814;51.134;16.980;2023-12-14T01:35:44;36.60;;;22.90;;
76848;SDS011;65814;51.134;16.980;2023-12-14T01:38:12;40.90;;;22.60;;
76848;SDS011;65814;51.134;16.980;2023-12-14T01:40:40;40.90;;;23.20;;
76848;SDS011;65814;51.134;16.980;2023-12-14T01:43:09;37.70;;;22.10;;
76848;SDS011;65814;51.134;16.980;2023-12-14T01:45:41;42.00;;;22.30;;
76848;SDS011;65814;51.134;16.980;2023-12-14T01:48:09;42.90;;;21.40;;
76848;SDS011;65814;51.134;16.980;2023-12-14T01:50:37;40.50;;;24.90;;
76848;SDS011;65814;51.134;16.980;2023-12-14T01:53:05;37.90;;;22.60;;
76848;SDS011;65814;51.134;16.980;2023-12-14T01:55:34;41.40;;;21.90;;
76848;SDS011;65814;51.134;16.980;2023-12-14T01:58:02;44.80;;;22.80;;
76848;SDS011;65814;51.134;16.980;2023-12-14T02:00:34;41.60;;;23.80;;
76848;SDS011;65814;51.134;16.980;2023-12-14T02:03:06;44.50;;;22.00;;
76848;SDS011;65814;51.134;16.980;2023-12-14T02:05:34;40.10;;;22.60;;
76848;SDS011;65814;51.134;16.980;2023-12-14T02:08:02;40.60;;;20.20;;
76848;SDS011;65814;51.134;16.980;2023-12-14T02:10:30;42.70;;;23.40;;
76848;SDS011;65814;51.134;16.980;2023-12-14T02:12:58;40.80;;;21.10;;
76848;SDS011;65814;51.134;16.980;2023-12-14T02:15:34;44.80;;;22.90;;
76848;SDS011;65814;51.134;16.980;2023-12-14T02:18:02;47.10;;;22.40;;
76848;SDS011;65814;51.134;16.980;2023-12-14T02:20:30;46.90;;;24.70;;
76848;SDS011;65814;51.134;16.980;2023-12-14T02:22:58;44.10;;;21.50;;
76848;SDS011;65814;51.134;16.980;2023-12-14T02:25:26;42.80;;;22.40;;
76848;SDS011;65814;51.134;16.980;2023-12-14T02:27:54;43.60;;;22.40;;
76848;SDS011;65814;51.134;16.980;2023-12-14T02:30:23;44.60;;;24.10;;
76848;SDS011;65814;51.134;16.980;2023-12-14T02:32:51;41.80;;;21.30;;
76848;SDS011;65814;51.134;16.980;2023-12-14T02:35:19;42.70;;;22.30;;
76848;SDS011;65814;51.134;16.980;2023-12-14T02:37:47;43.20;;;21.70;;
76848;SDS011;65814;51.134;16.980;2023-12-14T02:40:16;48.40;;;23.00;;
76848;SDS011;65814;51.134;16.980;2023-12-14T02:42:46;41.90;;;21.20;;
76848;SDS011;65814;51.134;16.980;2023-12-14T02:45:14;47.90;;;23.20;;
76848;SDS011;65814;51.134;16.980;2023-12-14T02:47:42;43.50;;;22.50;;
76848;SDS011;65814;51.134;16.980;2023-12-14T02:50:10;40.30;;;21.50;;
76848;SDS011;65814;51.134;16.980;2023-12-14T02:52:39;42.90;;;22.60;;
76848;SDS011;65814;51.134;16.980;2023-12-14T02:55:07;44.60;;;22.20;;
76848;SDS011;65814;51.134;16.980;2023-12-14T02:57:35;48.40;;;23.00;;
76848;SDS011;65814;51.134;16.980;2023-12-14T03:00:03;40.80;;;22.20;;
76848;SDS011;65814;51.134;16.980;2023-12-14T03:02:32;43.80;;;22.10;;
76848;SDS011;65814;51.134;16.980;2023-12-14T03:05:01;47.50;;;23.30;;
76848;SDS011;65814;51.134;16.980;2023-12-14T03:07:29;42.90;;;21.80;;
76848;SDS011;65814;51.134;16.980;2023-12-14T03:09:57;43.60;;;22.70;;
76848;SDS011;65814;51.134;16.980;2023-12-14T03:12:25;43.10;;;22.00;;
76848;SDS011;65814;51.134;16.980;2023-12-14T03:14:53;41.90;;;21.40;;
76848;SDS011;65814;51.134;16.980;2023-12-14T03:17:21;39.10;;;20.80;;
76848;SDS011;65814;51.134;16.980;2023-12-14T03:19:49;41.60;;;21.80;;
76848;SDS011;65814;51.134;16.980;2023-12-14T03:22:17;44.40;;;22.00;;
76848;SDS011;65814;51.134;16.980;2023-12-14T03:24:45;40.90;;;22.40;;
76848;SDS011;65814;51.134;16.980;2023-12-14T03:27:13;38.30;;;21.10;;
76848;SDS011;65814;51.134;16.980;2023-12-14T03:29:42;36.70;;;20.60;;
76848;SDS011;65814;51.134;16.980;2023-12-14T03:32:10;37.20;;;18.70;;
76848;SDS011;65814;51.134;16.980;2023-12-14T03:34:38;39.70;;;21.50;;
76848;SDS011;65814;51.134;16.980;2023-12-14T03:37:08;35.20;;;19.80;;
76848;SDS011;65814;51.134;16.980;2023-12-14T03:39:36;41.70;;;20.60;;
76848;SDS011;65814;51.134;16.980;2023-12-14T03:42:04;35.40;;;19.30;;
76848;SDS011;65814;51.134;16.980;2023-12-14T03:44:32;40.00;;;21.30;;
76848;SDS011;65814;51.134;16.980;2023-12-14T03:47:00;41.30;;;20.40;;
76848;SDS011;65814;51.134;16.980;2023-12-14T03:49:28;41.50;;;20.30;;
76848;SDS011;65814;51.134;16.980;2023-12-14T03:51:56;41.20;;;21.50;;
76848;SDS011;65814;51.134;16.980;2023-12-14T03:54:24;42.40;;;18.90;;
76848;SDS011;65814;51.134;16.980;2023-12-14T03:56:52;43.10;;;20.50;;
76848;SDS011;65814;51.134;16.980;2023-12-14T03:59:21;38.50;;;20.20;;
76848;SDS011;65814;51.134;16.980;2023-12-14T04:01:48;39.60;;;20.60;;
76848;SDS011;65814;51.134;16.980;2023-12-14T04:04:17;44.20;;;20.90;;
76848;SDS011;65814;51.134;16.980;2023-12-14T04:06:45;37.10;;;20.40;;
76848;SDS011;65814;51.134;16.980;2023-12-14T04:09:15;39.30;;;19.00;;
76848;SDS011;65814;51.134;16.980;2023-12-14T04:11:42;45.60;;;19.70;;
76848;SDS011;65814;51.134;16.980;2023-12-14T04:14:11;37.20;;;19.30;;
76848;SDS011;65814;51.134;16.980;2023-12-14T04:16:39;40.30;;;19.60;;
76848;SDS011;65814;51.134;16.980;2023-12-14T04:19:07;38.50;;;19.40;;
76848;SDS011;65814;51.134;16.980;2023-12-14T04:21:38;41.00;;;18.30;;
76848;SDS011;65814;51.134;16.980;2023-12-14T04:24:06;44.40;;;20.80;;
76848;SDS011;65814;51.134;16.980;2023-12-14T04:26:34;46.00;;;19.30;;
76848;SDS011;65814;51.134;16.980;2023-12-14T04:29:02;40.60;;;18.90;;
76848;SDS011;65814;51.134;16.980;2023-12-14T04:31:30;33.70;;;16.90;;
76848;SDS011;65814;51.134;16.980;2023-12-14T04:33:59;44.60;;;19.50;;
76848;SDS011;65814;51.134;16.980;2023-12-14T04:36:26;45.30;;;19.50;;
76848;SDS011;65814;51.134;16.980;2023-12-14T04:38:54;37.80;;;18.70;;
76848;SDS011;65814;51.134;16.980;2023-12-14T04:41:22;39.80;;;20.00;;
76848;SDS011;65814;51.134;16.980;2023-12-14T04:43:51;33.60;;;16.60;;
76848;SDS011;65814;51.134;16.980;2023-12-14T04:46:19;35.10;;;17.40;;
76848;SDS011;65814;51.134;16.980;2023-12-14T04:48:47;36.20;;;17.10;;
76848;SDS011;65814;51.134;16.980;2023-12-14T04:51:15;31.70;;;17.40;;
76848;SDS011;65814;51.134;16.980;2023-12-14T04:53:43;30.00;;;16.30;;
76848;SDS011;65814;51.134;16.980;2023-12-14T04:56:11;28.40;;;16.90;;
76848;SDS011;65814;51.134;16.980;2023-12-14T04:58:39;28.20;;;15.40;;
76848;SDS011;65814;51.134;16.980;2023-12-14T05:01:08;26.20;;;15.70;;
76848;SDS011;65814;51.134;16.980;2023-12-14T05:03:36;30.10;;;15.70;;
76848;SDS011;65814;51.134;16.980;2023-12-14T05:06:04;24.70;;;15.10;;
76848;SDS011;65814;51.134;16.980;2023-12-14T05:08:33;26.90;;;15.40;;
76848;SDS011;65814;51.134;16.980;2023-12-14T05:11:01;25.40;;;14.90;;
76848;SDS011;65814;51.134;16.980;2023-12-14T05:13:29;25.30;;;14.80;;
76848;SDS011;65814;51.134;16.980;2023-12-14T05:15:58;28.70;;;15.60;;
76848;SDS011;65814;51.134;16.980;2023-12-14T05:18:26;27.40;;;14.60;;
76848;SDS011;65814;51.134;16.980;2023-12-14T05:20:55;24.90;;;15.40;;
76848;SDS011;65814;51.134;16.980;2023-12-14T05:23:23;27.80;;;17.70;;
76848;SDS011;65814;51.134;16.980;2023-12-14T05:25:54;28.40;;;15.60;;
76848;SDS011;65814;51.134;16.980;2023-12-14T05:28:22;27.50;;;16.60;;
76848;SDS011;65814;51.134;16.980;2023-12-14T05:30:50;25.90;;;15.10;;
76848;SDS011;65814;51.134;16.980;2023-12-14T05:33:18;26.10;;;15.60;;
76848;SDS011;65814;51.134;16.980;2023-12-14T05:35:47;28.30;;;15.80;;
76848;SDS011;65814;51.134;16.980;2023-12-14T05:38:15;26.00;;;14.90;;
76848;SDS011;65814;51.134;16.980;2023-12-14T05:40:43;23.60;;;14.60;;
76848;SDS011;65814;51.134;16.980;2023-12-14T05:43:11;30.10;;;16.70;;
76848;SDS011;65814;51.134;16.980;2023-12-14T05:45:39;27.90;;;16.30;;
76848;SDS011;65814;51.134;16.980;2023-12-14T05:48:07;27.10;;;15.90;;
76848;SDS011;65814;51.134;16.980;2023-12-14T05:50:35;26.70;;;15.70;;
76848;SDS011;65814;51.134;16.980;2023-12-14T05:53:03;22.20;;;14.20;;
76848;SDS011;65814;51.134;16.980;2023-12-14T05:55:31;24.80;;;14.60;;
76848;SDS011;65814;51.134;16.980;2023-12-14T05:58:00;28.30;;;15.80;;
76848;SDS011;65814;51.134;16.980;2023-12-14T06:00:28;25.20;;;15.50;;
76848;SDS011;65814;51.134;16.980;2023-12-14T06:02:56;29.10;;;16.10;;
76848;SDS011;65814;51.134;16.980;2023-12-14T06:05:24;26.70;;;16.30;;
76848;SDS011;65814;51.134;16.980;2023-12-14T06:07:53;24.70;;;14.60;;
76848;SDS011;65814;51.134;16.980;2023-12-14T06:10:21;23.10;;;13.20;;
76848;SDS011;65814;51.134;16.980;2023-12-14T06:12:49;23.00;;;14.10;;
76848;SDS011;65814;51.134;16.980;2023-12-14T06:15:17;26.60;;;14.60;;
76848;SDS011;65814;51.134;16.980;2023-12-14T06:17:45;25.70;;;13.40;;
76848;SDS011;65814;51.134;16.980;2023-12-14T06:20:13;29.80;;;15.40;;
76848;SDS011;65814;51.134;16.980;2023-12-14T06:22:41;23.50;;;13.80;;
76848;SDS011;65814;51.134;16.980;2023-12-14T06:25:10;26.10;;;14.40;;
76848;SDS011;65814;51.134;16.980;2023-12-14T06:27:38;24.40;;;13.80;;
76848;SDS011;65814;51.134;16.980;2023-12-14T06:30:07;22.50;;;13.20;;
76848;SDS011;65814;51.134;16.980;2023-12-14T06:32:37;24.30;;;14.60;;
76848;SDS011;65814;51.134;16.980;2023-12-14T06:35:06;25.10;;;14.10;;
76848;SDS011;65814;51.134;16.980;2023-12-14T06:37:34;20.80;;;13.10;;
76848;SDS011;65814;51.134;16.980;2023-12-14T06:40:02;23.70;;;13.50;;
76848;SDS011;65814;51.134;16.980;2023-12-14T06:42:30;25.50;;;13.60;;
76848;SDS011;65814;51.134;16.980;2023-12-14T06:45:00;23.80;;;13.40;;
76848;SDS011;65814;51.134;16.980;2023-12-14T06:47:29;28.00;;;13.60;;
76848;SDS011;65814;51.134;16.980;2023-12-14T06:49:57;27.40;;;14.20;;
76848;SDS011;65814;51.134;16.980;2023-12-14T06:52:25;26.30;;;14.50;;
76848;SDS011;65814;51.134;16.980;2023-12-14T06:54:53;20.70;;;12.50;;
76848;SDS011;65814;51.134;16.980;2023-12-14T06:57:21;23.00;;;13.00;;
76848;SDS011;65814;51.134;16.980;2023-12-14T06:59:52;20.30;;;12.50;;
76848;SDS011;65814;51.134;16.980;2023-12-14T07:02:20;23.40;;;11.50;;
76848;SDS011;65814;51.134;16.980;2023-12-14T07:04:48;21.30;;;12.10;;
76848;SDS011;65814;51.134;16.980;2023-12-14T07:07:17;21.20;;;12.00;;
76848;SDS011;65814;51.134;16.980;2023-12-14T07:09:45;19.60;;;11.60;;
76848;SDS011;65814;51.134;16.980;2023-12-14T07:12:13;17.70;;;11.90;;
76848;SDS011;65814;51.134;16.980;2023-12-14T07:14:42;23.80;;;13.80;;
76848;SDS011;65814;51.134;16.980;2023-12-14T07:17:10;22.40;;;12.30;;
76848;SDS011;65814;51.134;16.980;2023-12-14T07:19:38;20.70;;;12.10;;
76848;SDS011;65814;51.134;16.980;2023-12-14T07:22:06;21.80;;;11.70;;
76848;SDS011;65814;51.134;16.980;2023-12-14T07:24:34;24.00;;;12.30;;
76848;SDS011;65814;51.134;16.980;2023-12-14T07:27:15;19.90;;;12.50;;
76848;SDS011;65814;51.134;16.980;2023-12-14T07:29:43;23.90;;;14.10;;
76848;SDS011;65814;51.134;16.980;2023-12-14T07:32:11;25.10;;;13.80;;
76848;SDS011;65814;51.134;16.980;2023-12-14T07:34:40;24.20;;;13.90;;
76848;SDS011;65814;51.134;16.980;2023-12-14T07:37:07;25.30;;;13.50;;
76848;SDS011;65814;51.134;16.980;2023-12-14T07:39:36;28.40;;;14.20;;
76848;SDS011;65814;51.134;16.980;2023-12-14T07:42:04;25.10;;;14.70;;
76848;SDS011;65814;51.134;16.980;2023-12-14T07:44:33;25.10;;;14.50;;
76848;SDS011;65814;51.134;16.980;2023-12-14T07:47:03;22.60;;;13.70;;
76848;SDS011;65814;51.134;16.980;2023-12-14T07:49:31;25.30;;;14.90;;
76848;SDS011;65814;51.134;16.980;2023-12-14T07:51:59;25.20;;;13.50;;
76848;SDS011;65814;51.134;16.980;2023-12-14T07:54:27;22.80;;;14.40;;
76848;SDS011;65814;51.134;16.980;2023-12-14T07:56:56;27.70;;;15.70;;
76848;SDS011;65814;51.134;16.980;2023-12-14T07:59:24;30.80;;;15.80;;
76848;SDS011;65814;51.134;16.980;2023-12-14T08:01:52;25.60;;;15.90;;
76848;SDS011;65814;51.134;16.980;2023-12-14T08:04:20;29.50;;;14.40;;
76848;SDS011;65814;51.134;16.980;2023-12-14T08:06:48;26.70;;;14.00;;
76848;SDS011;65814;51.134;16.980;2023-12-14T08:09:17;27.10;;;14.60;;
76848;SDS011;65814;51.134;16.980;2023-12-14T08:11:45;25.10;;;13.40;;
76848;SDS011;65814;51.134;16.980;2023-12-14T08:14:13;30.20;;;16.00;;
76848;SDS011;65814;51.134;16.980;2023-12-14T08:16:41;24.10;;;13.70;;
76848;SDS011;65814;51.134;16.980;2023-12-14T08:19:09;31.30;;;15.70;;
76848;SDS011;65814;51.134;16.980;2023-12-14T08:21:37;28.50;;;14.00;;
76848;SDS011;65814;51.134;16.980;2023-12-14T08:24:05;27.80;;;13.70;;
76848;SDS011;65814;51.134;16.980;2023-12-14T08:26:34;30.00;;;15.40;;
76848;SDS011;65814;51.134;16.980;2023-12-14T08:29:02;29.10;;;14.90;;
76848;SDS011;65814;51.134;16.980;2023-12-14T08:31:30;25.30;;;16.20;;
76848;SDS011;65814;51.134;16.980;2023-12-14T08:33:58;25.50;;;13.80;;
76848;SDS011;65814;51.134;16.980;2023-12-14T08:36:26;29.60;;;15.70;;
76848;SDS011;65814;51.134;16.980;2023-12-14T08:38:54;29.10;;;16.10;;
76848;SDS011;65814;51.134;16.980;2023-12-14T08:41:23;28.70;;;14.20;;
76848;SDS011;65814;51.134;16.980;2023-12-14T08:43:51;27.50;;;15.40;;
76848;SDS011;65814;51.134;16.980;2023-12-14T08:46:19;28.90;;;15.40;;
76848;SDS011;65814;51.134;16.980;2023-12-14T08:48:47;26.60;;;13.90;;
76848;SDS011;65814;51.134;16.980;2023-12-14T08:51:15;27.60;;;14.60;;
76848;SDS011;65814;51.134;16.980;2023-12-14T08:53:43;25.10;;;13.70;;
76848;SDS011;65814;51.134;16.980;2023-12-14T08:56:11;24.50;;;13.70;;
76848;SDS011;65814;51.134;16.980;2023-12-14T08:58:39;24.20;;;13.90;;
76848;SDS011;65814;51.134;16.980;2023-12-14T09:01:07;20.50;;;13.80;;
76848;SDS011;65814;51.134;16.980;2023-12-14T09:03:36;22.70;;;13.70;;
76848;SDS011;65814;51.134;16.980;2023-12-14T09:06:04;23.60;;;14.90;;
76848;SDS011;65814;51.134;16.980;2023-12-14T09:08:33;26.50;;;14.20;;
76848;SDS011;65814;51.134;16.980;2023-12-14T09:11:01;23.20;;;15.20;;
76848;SDS011;65814;51.134;16.980;2023-12-14T09:13:30;23.80;;;14.20;;
76848;SDS011;65814;51.134;16.980;2023-12-14T09:15:58;18.80;;;12.40;;
76848;SDS011;65814;51.134;16.980;2023-12-14T09:18:26;27.80;;;14.50;;
76848;SDS011;65814;51.134;16.980;2023-12-14T09:20:54;22.90;;;14.70;;
76848;SDS011;65814;51.134;16.980;2023-12-14T09:23:22;22.70;;;13.30;;
76848;SDS011;65814;51.134;16.980;2023-12-14T09:25:51;24.20;;;14.00;;
76848;SDS011;65814;51.134;16.980;2023-12-14T09:28:19;22.00;;;14.20;;
76848;SDS011;65814;51.134;16.980;2023-12-14T09:30:47;22.60;;;13.20;;
76848;SDS011;65814;51.134;16.980;2023-12-14T09:33:15;21.80;;;14.70;;
76848;SDS011;65814;51.134;16.980;2023-12-14T09:35:44;21.50;;;14.20;;
76848;SDS011;65814;51.134;16.980;2023-12-14T09:38:12;22.20;;;14.00;;
76848;SDS011;65814;51.134;16.980;2023-12-14T09:40:43;20.60;;;13.90;;
76848;SDS011;65814;51.134;16.980;2023-12-14T09:43:12;25.20;;;14.70;;
76848;SDS011;65814;51.134;16.980;2023-12-14T09:45:41;23.30;;;14.90;;
76848;SDS011;65814;51.134;16.980;2023-12-14T09:48:13;21.70;;;13.80;;
76848;SDS011;65814;51.134;16.980;2023-12-14T09:50:41;21.80;;;13.90;;
76848;SDS011;65814;51.134;16.980;2023-12-14T09:53:09;25.40;;;15.60;;
76848;SDS011;65814;51.134;16.980;2023-12-14T09:55:38;22.60;;;13.70;;
76848;SDS011;65814;51.134;16.980;2023-12-14T09:58:06;27.90;;;14.30;;
76848;SDS011;65814;51.134;16.980;2023-12-14T10:00:37;20.00;;;12.80;;
76848;SDS011;65814;51.134;16.980;2023-12-14T10:03:20;22.50;;;14.40;;
76848;SDS011;65814;51.134;16.980;2023-12-14T10:05:50;27.30;;;15.50;;
76848;SDS011;65814;51.134;16.980;2023-12-14T10:08:19;28.00;;;15.30;;
76848;SDS011;65814;51.134;16.980;2023-12-14T10:10:48;20.90;;;12.40;;
76848;SDS011;65814;51.134;16.980;2023-12-14T10:13:19;22.90;;;13.40;;
76848;SDS011;65814;51.134;16.980;2023-12-14T10:15:51;18.30;;;11.00;;
76848;SDS011;65814;51.134;16.980;2023-12-14T10:18:23;17.60;;;11.50;;
76848;SDS011;65814;51.134;16.980;2023-12-14T10:21:00;26.60;;;14.00;;
76848;SDS011;65814;51.134;16.980;2023-12-14T10:23:28;22.70;;;14.60;;
76848;SDS011;65814;51.134;16.980;2023-12-14T10:25:57;18.90;;;11.50;;
76848;SDS011;65814;51.134;16.980;2023-12-14T10:28:25;19.90;;;11.30;;
76848;SDS011;65814;51.134;16.980;2023-12-14T10:30:55;22.50;;;13.30;;
76848;SDS011;65814;51.134;16.980;2023-12-14T10:33:38;22.90;;;12.80;;
76848;SDS011;65814;51.134;16.980;2023-12-14T10:36:06;22.50;;;11.90;;
76848;SDS011;65814;51.134;16.980;2023-12-14T10:38:36;17.40;;;11.60;;
76848;SDS011;65814;51.134;16.980;2023-12-14T10:41:05;18.40;;;11.70;;
76848;SDS011;65814;51.134;16.980;2023-12-14T10:43:36;40.80;;;14.70;;
76848;SDS011;65814;51.134;16.980;2023-12-14T10:46:16;33.90;;;12.70;;
76848;SDS011;65814;51.134;16.980;2023-12-14T10:48:47;28.20;;;13.00;;
76848;SDS011;65814;51.134;16.980;2023-12-14T10:51:17;21.90;;;12.50;;
76848;SDS011;65814;51.134;16.980;2023-12-14T10:53:54;20.80;;;12.40;;
76848;SDS011;65814;51.134;16.980;2023-12-14T10:56:33;22.20;;;12.80;;
76848;SDS011;65814;51.134;16.980;2023-12-14T10:59:05;19.90;;;11.90;;
76848;SDS011;65814;51.134;16.980;2023-12-14T11:01:34;18.40;;;11.00;;
76848;SDS011;65814;51.134;16.980;2023-12-14T11:04:05;18.50;;;13.30;;
76848;SDS011;65814;51.134;16.980;2023-12-14T11:06:37;20.30;;;12.90;;
76848;SDS011;65814;51.134;16.980;2023-12-14T11:09:07;22.60;;;12.10;;
76848;SDS011;65814;51.134;16.980;2023-12-14T11:11:41;18.70;;;11.90;;
76848;SDS011;65814;51.134;16.980;2023-12-14T11:14:14;21.10;;;12.00;;
76848;SDS011;65814;51.134;16.980;2023-12-14T11:16:48;18.00;;;11.20;;
76848;SDS011;65814;51.134;16.980;2023-12-14T11:24:24;20.90;;;12.10;;
76848;SDS011;65814;51.134;16.980;2023-12-14T11:26:54;28.90;;;16.20;;
76848;SDS011;65814;51.134;16.980;2023-12-14T11:29:22;37.40;;;15.40;;
76848;SDS011;65814;51.134;16.980;2023-12-14T11:31:50;26.40;;;13.40;;
76848;SDS011;65814;51.134;16.980;2023-12-14T11:34:19;21.90;;;11.60;;
76848;SDS011;65814;51.134;16.980;2023-12-14T11:36:48;21.50;;;12.10;;
76848;SDS011;65814;51.134;16.980;2023-12-14T11:39:16;20.10;;;11.40;;
76848;SDS011;65814;51.134;16.980;2023-12-14T11:41:58;16.00;;;11.40;;
76848;SDS011;65814;51.134;16.980;2023-12-14T11:46:58;13.60;;;10.10;;
76848;SDS011;65814;51.134;16.980;2023-12-14T11:49:26;19.40;;;11.00;;
76848;SDS011;65814;51.134;16.980;2023-12-14T11:51:55;15.40;;;10.00;;
76848;SDS011;65814;51.134;16.980;2023-12-14T11:54:23;14.80;;;9.90;;
76848;SDS011;65814;51.134;16.980;2023-12-14T11:56:51;15.20;;;9.90;;
76848;SDS011;65814;51.134;16.980;2023-12-14T11:59:20;19.20;;;10.70;;
76848;SDS011;65814;51.134;16.980;2023-12-14T12:01:59;17.90;;;10.90;;
76848;SDS011;65814;51.134;16.980;2023-12-14T12:04:28;16.80;;;10.60;;
76848;SDS011;65814;51.134;16.980;2023-12-14T12:07:00;18.20;;;10.60;;
76848;SDS011;65814;51.134;16.980;2023-12-14T12:09:36;21.10;;;11.40;;
76848;SDS011;65814;51.134;16.980;2023-12-14T12:12:13;17.70;;;10.40;;
76848;SDS011;65814;51.134;16.980;2023-12-14T12:14:41;17.20;;;10.30;;
76848;SDS011;65814;51.134;16.980;2023-12-14T12:17:10;15.70;;;10.10;;
76848;SDS011;65814;51.134;16.980;2023-12-14T12:19:38;18.60;;;10.20;;
76848;SDS011;65814;51.134;16.980;2023-12-14T12:22:07;20.30;;;9.80;;
76848;SDS011;65814;51.134;16.980;2023-12-14T12:24:35;15.30;;;10.20;;
76848;SDS011;65814;51.134;16.980;2023-12-14T12:27:03;15.00;;;9.80;;
76848;SDS011;65814;51.134;16.980;2023-12-14T12:29:32;16.30;;;9.70;;
76848;SDS011;65814;51.134;16.980;2023-12-14T12:32:00;14.90;;;9.70;;
76848;SDS011;65814;51.134;16.980;2023-12-14T12:34:28;17.50;;;10.50;;
76848;SDS011;65814;51.134;16.980;2023-12-14T12:36:56;14.10;;;9.60;;
76848;SDS011;65814;51.134;16.980;2023-12-14T12:39:25;17.10;;;10.60;;
76848;SDS011;65814;51.134;16.980;2023-12-14T12:41:53;16.80;;;9.90;;
76848;SDS011;65814;51.134;16.980;2023-12-14T12:44:21;14.90;;;10.30;;
76848;SDS011;65814;51.134;16.980;2023-12-14T12:46:50;14.60;;;9.10;;
76848;SDS011;65814;51.134;16.980;2023-12-14T12:49:35;13.60;;;8.40;;
76848;SDS011;65814;51.134;16.980;2023-12-14T12:52:03;12.10;;;7.20;;
76848;SDS011;65814;51.134;16.980;2023-12-14T12:54:31;10.70;;;7.90;;
76848;SDS011;65814;51.134;16.980;2023-12-14T12:57:00;11.30;;;7.70;;
76848;SDS011;65814;51.134;16.980;2023-12-14T12:59:28;11.80;;;8.20;;
76848;SDS011;65814;51.134;16.980;2023-12-14T13:01:56;10.00;;;6.90;;
76848;SDS011;65814;51.134;16.980;2023-12-14T13:04:25;12.10;;;8.10;;
76848;SDS011;65814;51.134;16.980;2023-12-14T13:06:56;11.70;;;7.70;;
76848;SDS011;65814;51.134;16.980;2023-12-14T13:09:24;12.30;;;7.60;;
76848;SDS011;65814;51.134;16.980;2023-12-14T13:11:52;11.20;;;7.60;;
76848;SDS011;65814;51.134;16.980;2023-12-14T13:14:20;13.70;;;8.00;;
76848;SDS011;65814;51.134;16.980;2023-12-14T13:16:49;12.10;;;8.00;;
76848;SDS011;65814;51.134;16.980;2023-12-14T13:19:19;10.10;;;7.60;;
76848;SDS011;65814;51.134;16.980;2023-12-14T13:21:48;12.70;;;7.70;;
76848;SDS011;65814;51.134;16.980;2023-12-14T13:24:16;13.90;;;8.80;;
76848;SDS011;65814;51.134;16.980;2023-12-14T13:26:44;15.20;;;8.80;;
76848;SDS011;65814;51.134;16.980;2023-12-14T13:29:12;12.40;;;8.40;;
76848;SDS011;65814;51.134;16.980;2023-12-14T13:31:40;11.50;;;8.60;;
76848;SDS011;65814;51.134;16.980;2023-12-14T13:34:09;11.40;;;7.90;;
76848;SDS011;65814;51.134;16.980;2023-12-14T13:36:37;13.50;;;8.80;;
76848;SDS011;65814;51.134;16.980;2023-12-14T13:39:05;12.70;;;9.30;;
76848;SDS011;65814;51.134;16.980;2023-12-14T13:41:34;10.70;;;8.10;;
76848;SDS011;65814;51.134;16.980;2023-12-14T13:44:16;14.40;;;8.60;;
76848;SDS011;65814;51.134;16.980;2023-12-14T13:46:45;11.20;;;7.40;;
76848;SDS011;65814;51.134;16.980;2023-12-14T13:49:13;13.70;;;8.60;;
76848;SDS011;65814;51.134;16.980;2023-12-14T13:51:41;14.30;;;8.50;;
76848;SDS011;65814;51.134;16.980;2023-12-14T13:54:09;16.10;;;9.20;;
76848;SDS011;65814;51.134;16.980;2023-12-14T13:56:37;13.90;;;9.30;;
76848;SDS011;65814;51.134;16.980;2023-12-14T13:59:05;11.50;;;7.70;;
76848;SDS011;65814;51.134;16.980;2023-12-14T14:01:34;12.00;;;7.80;;
76848;SDS011;65814;51.134;16.980;2023-12-14T14:04:02;14.40;;;8.60;;
76848;SDS011;65814;51.134;16.980;2023-12-14T14:06:30;14.70;;;9.40;;
76848;SDS011;65814;51.134;16.980;2023-12-14T14:08:59;12.20;;;8.20;;
76848;SDS011;65814;51.134;16.980;2023-12-14T14:11:27;14.20;;;8.90;;
76848;SDS011;65814;51.134;16.980;2023-12-14T14:13:55;16.80;;;9.60;;
76848;SDS011;65814;51.134;16.980;2023-12-14T14:16:23;12.70;;;8.90;;
76848;SDS011;65814;51.134;16.980;2023-12-14T14:18:52;20.10;;;8.80;;
76848;SDS011;65814;51.134;16.980;2023-12-14T14:21:20;14.00;;;9.20;;
76848;SDS011;65814;51.134;16.980;2023-12-14T14:23:48;16.60;;;9.50;;
76848;SDS011;65814;51.134;16.980;2023-12-14T14:26:16;14.20;;;8.80;;
76848;SDS011;65814;51.134;16.980;2023-12-14T14:28:44;13.70;;;8.60;;